Time;durP1;ratioP1;P1;durP2;ratioP2;P2;SDS_P1;SDS_P2;PMS_P1;PMS_P2;Temp;Humidity;BMP_temperature;BMP_pressure;BME280_temperature;BME280_humidity;BME280_pressure;Samples;Min_cycle;Max_cycle;Signal;HPM_P1;HPM_P2
2024/02/05 00:01:07;;;;;;;36.72;5.90;;;;;;;11.71;100.00;102263.00;5284767;28;20084;-78
2024/02/05 00:03:38;;;;;;;34.90;6.50;;;;;;;11.65;100.00;102267.13;5286996;27;20023;-76
2024/02/05 00:06:10;;;;;;;30.60;6.10;;;;;;;11.71;100.00;102256.78;5285142;28;20023;-76
2024/02/05 00:08:41;;;;;;;34.55;6.35;;;;;;;11.66;100.00;102271.50;5281732;28;20140;-76
2024/02/05 00:11:12;;;;;;;35.75;6.43;;;;;;;11.61;100.00;102265.69;5278340;28;20126;-76
2024/02/05 00:13:43;;;;;;;23.48;5.47;;;;;;;11.63;100.00;102271.75;5284506;28;20027;-76
2024/02/05 00:16:14;;;;;;;38.33;6.68;;;;;;;11.57;100.00;102266.94;5279432;28;20201;-76
2024/02/05 00:18:44;;;;;;;31.75;6.95;;;;;;;11.61;100.00;102276.44;5283552;28;20023;-76
2024/02/05 00:21:15;;;;;;;34.03;5.85;;;;;;;11.65;100.00;102283.25;5284528;27;20039;-76
2024/02/05 00:23:45;;;;;;;35.85;6.75;;;;;;;11.73;100.00;102285.22;5284370;28;20019;-79
2024/02/05 00:26:16;;;;;;;32.03;5.28;;;;;;;11.72;100.00;102280.00;5284289;28;20031;-76
2024/02/05 00:28:46;;;;;;;31.63;6.95;;;;;;;11.78;100.00;102288.34;5283586;28;20027;-76
2024/02/05 00:31:17;;;;;;;29.85;6.25;;;;;;;11.79;100.00;102286.50;5284128;28;20019;-76
2024/02/05 00:33:47;;;;;;;37.03;6.43;;;;;;;11.62;100.00;102283.50;5278781;28;20431;-76
2024/02/05 00:36:18;;;;;;;40.33;6.40;;;;;;;11.65;100.00;102287.78;5283650;28;20031;-76
2024/02/05 00:38:48;;;;;;;35.72;6.60;;;;;;;11.62;100.00;102270.06;5283463;28;20499;-76
2024/02/05 00:41:19;;;;;;;33.35;5.88;;;;;;;11.61;100.00;102284.50;5284035;28;20023;-76
2024/02/05 00:43:49;;;;;;;39.42;6.65;;;;;;;11.62;100.00;102279.97;5286643;28;20016;-76
2024/02/05 00:46:22;;;;;;;36.72;6.65;;;;;;;11.60;100.00;102264.00;5286648;28;20020;-79
2024/02/05 00:48:54;;;;;;;38.22;5.90;;;;;;;11.55;100.00;102278.84;5283344;28;20023;-76
2024/02/05 00:51:26;;;;;;;26.85;5.07;;;;;;;11.57;100.00;102280.38;5287953;28;20023;-76
2024/02/05 00:53:57;;;;;;;37.55;6.28;;;;;;;11.57;100.00;102283.06;5284397;27;20024;-79
2024/02/05 00:56:28;;;;;;;36.65;6.13;;;;;;;11.46;100.00;102291.25;5288769;28;20024;-76
2024/02/05 00:59:00;;;;;;;40.80;6.80;;;;;;;11.38;100.00;102288.38;5279975;28;20024;-76
2024/02/05 01:01:31;;;;;;;37.88;6.45;;;;;;;11.36;100.00;102285.00;5283426;28;20063;-79
2024/02/05 01:04:03;;;;;;;31.75;6.68;;;;;;;11.32;100.00;102297.00;5290539;27;20023;-76
2024/02/05 01:06:33;;;;;;;30.85;5.30;;;;;;;11.33;100.00;102296.00;5287479;28;20020;-77
2024/02/05 01:09:09;;;;;;;34.97;6.05;;;;;;;11.29;100.00;102289.19;5289817;27;20179;-79
2024/02/05 01:11:39;;;;;;;52.22;7.15;;;;;;;11.35;100.00;102291.38;5289474;27;20030;-76
2024/02/05 01:14:10;;;;;;;39.38;7.28;;;;;;;11.39;100.00;102284.69;5288039;28;20023;-76
2024/02/05 01:16:40;;;;;;;41.47;6.55;;;;;;;11.40;100.00;102291.81;5289782;27;20028;-79
2024/02/05 01:19:11;;;;;;;31.75;6.13;;;;;;;11.40;100.00;102287.28;5288898;27;20027;-77
2024/02/05 01:21:42;;;;;;;44.50;6.43;;;;;;;11.33;100.00;102290.63;5289129;27;20082;-75
2024/02/05 01:24:13;;;;;;;43.47;6.85;;;;;;;11.33;100.00;102279.88;5283322;27;20081;-79
2024/02/05 01:26:43;;;;;;;48.30;6.93;;;;;;;11.32;100.00;102294.31;5287660;28;20102;-76
2024/02/05 01:29:14;;;;;;;34.72;6.28;;;;;;;11.26;100.00;102286.81;5285583;28;20046;-76
2024/02/05 01:31:45;;;;;;;43.65;6.28;;;;;;;11.34;100.00;102289.63;5287614;28;20033;-75
2024/02/05 01:34:15;;;;;;;39.45;6.28;;;;;;;11.36;100.00;102287.69;5287088;28;20043;-76
2024/02/05 01:36:46;;;;;;;40.10;5.93;;;;;;;11.26;100.00;102281.44;5289930;27;20541;-76
2024/02/05 01:39:18;;;;;;;26.20;6.00;;;;;;;11.34;100.00;102286.94;5286090;28;20291;-76
2024/02/05 01:41:48;;;;;;;36.45;6.80;;;;;;;11.35;100.00;102294.06;5287125;28;20023;-76
2024/02/05 01:44:19;;;;;;;34.75;6.22;;;;;;;11.40;100.00;102279.22;5288724;27;20476;-75
2024/02/05 01:46:50;;;;;;;33.50;5.95;;;;;;;11.42;100.00;102287.13;5287199;28;20020;-79
2024/02/05 01:49:22;;;;;;;27.67;5.88;;;;;;;11.38;100.00;102283.84;5284408;28;20385;-75
2024/02/05 01:51:55;;;;;;;37.00;6.90;;;;;;;11.32;100.00;102276.34;5290918;27;20528;-75
2024/02/05 01:54:26;;;;;;;47.40;6.65;;;;;;;11.39;100.00;102273.97;5292029;27;20028;-76
2024/02/05 01:56:59;;;;;;;38.45;6.82;;;;;;;11.46;100.00;102274.28;5291091;27;20560;-76
2024/02/05 01:59:30;;;;;;;42.33;6.40;;;;;;;11.43;100.00;102283.44;5291186;27;20028;-76
2024/02/05 02:02:01;;;;;;;42.72;6.53;;;;;;;11.49;100.00;102272.16;5291232;27;20495;-76
2024/02/05 02:04:33;;;;;;;34.72;5.82;;;;;;;11.44;100.00;102266.34;5287779;27;20055;-78
2024/02/05 02:07:04;;;;;;;24.52;5.10;;;;;;;11.46;100.00;102267.06;5287347;28;20028;-77
2024/02/05 02:09:37;;;;;;;36.42;6.38;;;;;;;11.48;100.00;102265.06;5288138;27;20075;-76
2024/02/05 02:12:20;;;;;;;30.15;6.85;;;;;;;11.50;100.00;102268.50;5290437;27;20035;-76
2024/02/05 02:15:12;;;;;;;32.63;5.57;;;;;;;11.41;100.00;102258.56;5285483;28;20030;-79
2024/02/05 02:17:45;;;;;;;28.35;5.35;;;;;;;11.43;100.00;102253.88;5286781;27;20483;-76
2024/02/05 02:20:21;;;;;;;29.35;6.28;;;;;;;11.46;100.00;102256.31;5288216;27;20063;-76
2024/02/05 02:23:17;;;;;;;44.67;7.80;;;;;;;11.48;100.00;102254.31;5285413;27;20040;-76
2024/02/05 02:25:57;;;;;;;29.03;6.17;;;;;;;11.44;100.00;102252.91;5284892;27;20111;-75
2024/02/05 02:28:38;;;;;;;44.05;6.63;;;;;;;11.47;100.00;102254.47;5286677;27;20368;-74
2024/02/05 02:31:09;;;;;;;30.63;5.65;;;;;;;11.45;100.00;102249.25;5282232;27;20120;-76
2024/02/05 02:33:58;;;;;;;27.98;5.80;;;;;;;11.40;100.00;102246.97;5289559;27;20085;-76
2024/02/05 02:36:52;;;;;;;33.08;6.80;;;;;;;11.48;100.00;102248.94;5290637;27;20068;-76
2024/02/05 02:39:26;;;;;;;36.55;5.90;;;;;;;11.38;100.00;102237.34;5286019;27;20463;-76
2024/02/05 02:42:01;;;;;;;30.38;6.20;;;;;;;11.39;100.00;102234.50;5299010;27;20056;-76
2024/02/05 02:44:35;;;;;;;31.38;7.20;;;;;;;11.42;100.00;102233.38;5293225;27;20545;-76
2024/02/05 02:47:06;;;;;;;35.45;6.97;;;;;;;11.33;100.00;102236.91;5284945;27;20110;-76
2024/02/05 02:49:36;;;;;;;43.78;6.88;;;;;;;11.47;100.00;102241.03;5290291;27;20143;-76
2024/02/05 02:52:07;;;;;;;40.70;6.43;;;;;;;11.42;100.00;102249.50;5281008;27;20088;-76
2024/02/05 02:54:38;;;;;;;31.38;5.93;;;;;;;11.49;100.00;102242.59;5288286;27;20050;-76
2024/02/05 02:57:08;;;;;;;44.08;7.13;;;;;;;11.41;100.00;102234.38;5289035;27;20136;-76
2024/02/05 02:59:39;;;;;;;26.15;5.85;;;;;;;11.46;100.00;102225.91;5284577;28;20467;-76
2024/02/05 03:02:09;;;;;;;34.33;5.93;;;;;;;11.37;100.00;102222.19;5285950;27;20027;-76
2024/02/05 03:04:40;;;;;;;31.60;6.63;;;;;;;11.48;100.00;102229.28;5289541;27;20076;-76
2024/02/05 03:07:11;;;;;;;28.25;5.65;;;;;;;11.50;100.00;102221.97;5264901;28;20395;-76
2024/02/05 03:09:42;;;;;;;37.63;6.20;;;;;;;11.44;100.00;102215.28;5285083;27;20073;-76
2024/02/05 03:12:12;;;;;;;39.67;6.28;;;;;;;11.46;100.00;102224.06;5285675;27;20036;-76
2024/02/05 03:14:43;;;;;;;36.80;6.25;;;;;;;11.44;100.00;102227.88;5288253;27;20017;-76
2024/02/05 03:17:14;;;;;;;40.08;6.57;;;;;;;11.47;100.00;102223.06;5284357;28;20031;-76
2024/02/05 03:19:44;;;;;;;31.92;6.38;;;;;;;11.48;100.00;102213.16;5286794;27;20023;-76
2024/02/05 03:22:15;;;;;;;30.60;7.00;;;;;;;11.38;100.00;102207.78;5288217;27;20027;-76
2024/02/05 03:24:46;;;;;;;38.88;5.88;;;;;;;11.47;100.00;102204.25;5286671;27;20039;-76
2024/02/05 03:27:17;;;;;;;30.85;6.90;;;;;;;11.41;100.00;102212.88;5285619;27;20031;-76
2024/02/05 03:29:47;;;;;;;33.40;6.22;;;;;;;11.44;100.00;102207.22;5288079;27;20030;-76
2024/02/05 03:32:18;;;;;;;34.55;6.03;;;;;;;11.40;100.00;102200.44;5283932;28;20495;-76
2024/02/05 03:34:49;;;;;;;42.97;6.55;;;;;;;11.39;100.00;102202.25;5284855;27;20028;-76
2024/02/05 03:37:20;;;;;;;30.80;6.13;;;;;;;11.30;100.00;102203.09;5287611;27;20046;-76
2024/02/05 03:39:50;;;;;;;42.33;6.55;;;;;;;11.39;100.00;102209.47;5282077;27;20401;-76
2024/02/05 03:42:21;;;;;;;32.45;5.70;;;;;;;11.33;100.00;102207.34;5284132;27;20024;-76
2024/02/05 03:44:51;;;;;;;46.05;6.38;;;;;;;11.30;100.00;102200.44;5284974;27;20027;-76
2024/02/05 03:47:22;;;;;;;49.25;5.60;;;;;;;11.32;100.00;102203.81;5287054;27;20024;-76
2024/02/05 03:49:52;;;;;;;37.88;6.40;;;;;;;11.30;100.00;102210.31;5284218;27;20031;-76
2024/02/05 03:52:23;;;;;;;42.10;7.95;;;;;;;11.38;100.00;102211.31;5285528;27;20870;-76
2024/02/05 03:54:54;;;;;;;32.83;6.45;;;;;;;11.35;100.00;102216.13;5285685;27;20023;-76
2024/02/05 03:57:24;;;;;;;32.70;6.10;;;;;;;11.36;100.00;102215.13;5285907;27;21068;-76
2024/02/05 03:59:56;;;;;;;43.63;6.40;;;;;;;11.36;100.00;102212.44;5279863;27;20024;-75
2024/02/05 04:02:28;;;;;;;26.70;6.22;;;;;;;11.27;100.00;102202.53;5285916;28;20039;-76
2024/02/05 04:04:59;;;;;;;47.17;7.13;;;;;;;11.32;100.00;102208.34;5281397;28;20380;-75
2024/02/05 04:07:29;;;;;;;43.15;7.03;;;;;;;11.31;100.00;102203.97;5285365;28;20027;-76
2024/02/05 04:10:00;;;;;;;49.25;6.70;;;;;;;11.32;100.00;102202.97;5285243;28;20030;-76
2024/02/05 04:12:31;;;;;;;36.53;6.28;;;;;;;11.22;100.00;102205.63;5284514;28;20130;-76
2024/02/05 04:15:01;;;;;;;38.42;5.85;;;;;;;11.22;100.00;102208.31;5285890;28;20499;-75
2024/02/05 04:17:32;;;;;;;29.10;5.32;;;;;;;11.28;100.00;102206.91;5284960;28;20039;-76
2024/02/05 04:20:05;;;;;;;40.05;7.55;;;;;;;11.24;100.00;102208.16;5285049;27;20030;-76
2024/02/05 04:22:38;;;;;;;39.08;6.80;;;;;;;11.23;100.00;102203.78;5283550;28;20032;-76
2024/02/05 04:25:09;;;;;;;35.75;7.32;;;;;;;11.13;100.00;102209.13;5286606;28;20464;-76
2024/02/05 04:27:39;;;;;;;31.40;6.28;;;;;;;11.24;100.00;102208.16;5284742;28;20024;-76
2024/02/05 04:30:10;;;;;;;45.92;8.25;;;;;;;11.24;100.00;102205.47;5284734;28;20020;-76
2024/02/05 04:32:41;;;;;;;37.90;6.72;;;;;;;11.22;100.00;102212.84;5283358;28;20039;-76
2024/02/05 04:35:11;;;;;;;33.25;6.55;;;;;;;11.16;100.00;102208.88;5283717;28;20019;-76
2024/02/05 04:37:43;;;;;;;32.40;6.40;;;;;;;11.30;100.00;102213.00;5286676;27;20056;-76
2024/02/05 04:40:13;;;;;;;44.33;7.40;;;;;;;11.22;100.00;102210.16;5288376;28;20027;-76
2024/02/05 04:42:44;;;;;;;31.70;5.13;;;;;;;11.25;100.00;102218.78;5287215;27;20027;-76
2024/02/05 04:45:14;;;;;;;35.97;8.10;;;;;;;11.19;100.00;102213.94;5281732;27;20019;-76
2024/02/05 04:47:47;;;;;;;39.50;10.35;;;;;;;11.17;100.00;102215.94;5289002;27;20019;-76
2024/02/05 04:50:17;;;;;;;44.25;8.82;;;;;;;11.26;100.00;102230.38;5287605;28;20111;-76
2024/02/05 04:52:48;;;;;;;38.15;6.53;;;;;;;11.23;100.00;102219.91;5286582;27;20027;-76
2024/02/05 04:55:18;;;;;;;27.73;5.65;;;;;;;11.31;100.00;102217.38;5289384;27;20031;-76
2024/02/05 04:57:49;;;;;;;32.45;5.95;;;;;;;11.28;100.00;102214.97;5284394;27;20057;-76
2024/02/05 05:00:21;;;;;;;43.53;7.90;;;;;;;11.24;100.00;102221.59;5268995;28;20084;-76
2024/02/05 05:02:52;;;;;;;41.38;6.07;;;;;;;11.24;100.00;102214.38;5288950;27;20043;-75
2024/02/05 05:05:22;;;;;;;39.60;6.20;;;;;;;11.14;100.00;102216.19;5284070;27;20626;-76
2024/02/05 05:07:53;;;;;;;36.17;6.43;;;;;;;11.09;100.00;102213.94;5287959;28;20019;-76
2024/02/05 05:10:23;;;;;;;34.38;6.57;;;;;;;11.13;100.00;102212.66;5287681;28;20038;-76
2024/02/05 05:12:54;;;;;;;36.88;6.50;;;;;;;11.18;100.00;102211.41;5287925;27;20534;-76
2024/02/05 05:15:24;;;;;;;31.40;5.70;;;;;;;11.14;100.00;102218.88;5288548;27;20031;-76
2024/02/05 05:17:55;;;;;;;38.75;6.60;;;;;;;11.10;100.00;102204.91;5281300;27;20030;-76
2024/02/05 05:20:25;;;;;;;30.73;6.18;;;;;;;11.16;100.00;102206.19;5287645;28;20027;-75
2024/02/05 05:22:56;;;;;;;34.97;6.00;;;;;;;11.11;100.00;102208.44;5287960;27;20065;-76
2024/02/05 05:25:26;;;;;;;33.85;6.00;;;;;;;11.14;100.00;102202.75;5288048;27;20031;-76
2024/02/05 05:27:57;;;;;;;31.05;6.28;;;;;;;11.16;100.00;102190.06;5286710;28;20401;-76
2024/02/05 05:30:27;;;;;;;36.45;6.85;;;;;;;11.14;100.00;102190.22;5285862;27;20035;-76
2024/02/05 05:32:58;;;;;;;32.22;6.28;;;;;;;11.13;100.00;102193.84;5288363;27;20030;-76
2024/02/05 05:35:28;;;;;;;32.10;6.40;;;;;;;11.16;100.00;102190.06;5288025;27;20024;-76
2024/02/05 05:37:59;;;;;;;42.25;9.73;;;;;;;11.11;100.00;102190.47;5287897;27;20027;-76
2024/02/05 05:40:29;;;;;;;74.72;19.30;;;;;;;11.12;100.00;102205.59;5286418;27;20033;-76
2024/02/05 05:43:00;;;;;;;61.13;12.82;;;;;;;11.17;100.00;102207.88;5287600;27;20031;-76
2024/02/05 05:45:30;;;;;;;30.20;7.57;;;;;;;11.14;100.00;102206.31;5287226;28;20034;-76
2024/02/05 05:48:03;;;;;;;43.78;10.18;;;;;;;11.10;100.00;102199.53;5287851;28;20059;-76
2024/02/05 05:50:34;;;;;;;43.72;7.30;;;;;;;11.16;100.00;102206.19;5285647;28;20094;-76
2024/02/05 05:53:05;;;;;;;34.38;8.95;;;;;;;11.08;100.00;102196.09;5287467;28;20106;-76
2024/02/05 05:55:35;;;;;;;46.10;7.95;;;;;;;11.02;100.00;102185.91;5281315;28;20385;-76
2024/02/05 05:58:06;;;;;;;38.92;9.70;;;;;;;11.05;100.00;102185.66;5289906;27;20023;-76
2024/02/05 06:00:36;;;;;;;49.63;14.20;;;;;;;11.09;100.00;102192.47;5286475;27;20426;-76
2024/02/05 06:03:07;;;;;;;35.63;8.95;;;;;;;11.11;100.00;102185.09;5287264;27;20029;-76
2024/02/05 06:05:37;;;;;;;40.55;8.15;;;;;;;10.99;100.00;102186.19;5286732;28;20023;-76
2024/02/05 06:08:08;;;;;;;35.25;7.40;;;;;;;11.03;100.00;102171.50;5283027;28;20036;-76
2024/02/05 06:10:38;;;;;;;38.45;12.95;;;;;;;11.05;100.00;102182.13;5285231;28;20419;-76
2024/02/05 06:13:09;;;;;;;49.78;14.73;;;;;;;11.01;100.00;102189.59;5281312;28;20076;-76
2024/02/05 06:15:39;;;;;;;89.03;32.75;;;;;;;10.92;100.00;102184.19;5286592;28;20085;-76
2024/02/05 06:18:09;;;;;;;44.22;13.35;;;;;;;10.97;100.00;102190.00;5286733;28;20032;-76
2024/02/05 06:20:40;;;;;;;60.00;17.67;;;;;;;10.93;100.00;102185.88;5285578;27;20031;-76
2024/02/05 06:23:10;;;;;;;101.63;29.30;;;;;;;10.95;100.00;102184.78;5285945;28;20484;-76
2024/02/05 06:25:41;;;;;;;53.45;16.08;;;;;;;10.97;100.00;102193.53;5286185;28;20396;-76
2024/02/05 06:28:13;;;;;;;39.95;9.60;;;;;;;10.89;100.00;102196.91;5285448;28;20016;-76
2024/02/05 06:30:49;;;;;;;42.08;10.27;;;;;;;10.86;100.00;102182.91;5286781;27;20027;-76
2024/02/05 06:33:19;;;;;;;46.03;10.90;;;;;;;10.89;100.00;102179.94;5289306;27;20035;-74
2024/02/05 06:35:50;;;;;;;41.42;9.52;;;;;;;10.88;100.00;102183.59;5287365;27;20028;-74
2024/02/05 06:38:20;;;;;;;42.13;8.40;;;;;;;10.86;100.00;102164.94;5274080;27;20610;-74
2024/02/05 06:40:51;;;;;;;27.45;6.82;;;;;;;10.84;100.00;102163.38;5281275;27;20130;-74
2024/02/05 06:43:22;;;;;;;39.17;6.10;;;;;;;10.77;100.00;102175.66;5288637;27;20534;-74
2024/02/05 06:45:52;;;;;;;37.58;6.85;;;;;;;10.70;100.00;102163.78;5291962;27;20024;-74
2024/02/05 06:48:23;;;;;;;55.88;7.93;;;;;;;10.67;100.00;102161.34;5292559;27;20496;-74
2024/02/05 06:50:53;;;;;;;35.60;6.68;;;;;;;10.61;100.00;102163.59;5296239;27;20123;-74
2024/02/05 06:53:24;;;;;;;40.53;6.68;;;;;;;10.61;100.00;102165.41;5291659;27;20026;-74
2024/02/05 06:55:54;;;;;;;26.20;6.32;;;;;;;10.60;100.00;102163.72;5286825;27;20035;-74
2024/02/05 06:58:25;;;;;;;37.40;7.10;;;;;;;10.52;100.00;102158.16;5286668;27;20681;-73
2024/02/05 07:00:55;;;;;;;47.33;6.88;;;;;;;10.52;100.00;102164.38;5282476;27;20020;-74
2024/02/05 07:03:26;;;;;;;47.28;6.85;;;;;;;10.46;100.00;102162.25;5288710;27;20047;-74
2024/02/05 07:05:56;;;;;;;42.55;7.38;;;;;;;10.52;100.00;102169.75;5288257;27;20020;-74
2024/02/05 07:08:28;;;;;;;44.53;7.50;;;;;;;10.45;100.00;102154.34;5282980;27;20050;-74
2024/02/05 07:10:58;;;;;;;37.03;6.85;;;;;;;10.46;100.00;102178.34;5281274;28;20084;-74
2024/02/05 07:13:29;;;;;;;60.78;17.13;;;;;;;10.49;100.00;102180.78;5292551;27;20493;-74
2024/02/05 07:16:00;;;;;;;43.08;20.63;;;;;;;10.40;100.00;102189.59;5292723;27;20046;-73
2024/02/05 07:18:30;;;;;;;41.22;9.45;;;;;;;10.43;100.00;102183.97;5290417;27;20028;-74
2024/02/05 07:21:04;;;;;;;41.08;7.90;;;;;;;10.43;100.00;102192.00;5284932;27;20033;-73
2024/02/05 07:23:35;;;;;;;44.13;7.32;;;;;;;10.47;100.00;102196.13;5288475;27;20034;-73
2024/02/05 07:26:05;;;;;;;35.30;6.72;;;;;;;10.44;100.00;102188.38;5290401;27;20034;-73
2024/02/05 07:28:36;;;;;;;36.38;8.13;;;;;;;10.49;100.00;102191.50;5293482;27;20035;-74
2024/02/05 07:31:06;;;;;;;40.47;7.15;;;;;;;10.52;100.00;102190.38;5283595;28;20019;-73
2024/02/05 07:33:37;;;;;;;32.90;6.78;;;;;;;10.57;100.00;102197.03;5292879;27;20031;-74
2024/02/05 07:36:07;;;;;;;29.83;6.72;;;;;;;10.37;100.00;102193.38;5287869;27;20031;-74
2024/02/05 07:38:38;;;;;;;44.25;6.63;;;;;;;10.48;100.00;102197.81;5292523;27;20099;-74
2024/02/05 07:41:10;;;;;;;44.78;7.53;;;;;;;10.52;100.00;102209.16;5297725;27;20027;-74
2024/02/05 07:43:40;;;;;;;39.33;6.60;;;;;;;10.57;100.00;102212.28;5286347;27;20051;-74
2024/02/05 07:46:11;;;;;;;31.65;6.68;;;;;;;10.58;100.00;102214.81;5292935;27;20436;-74
2024/02/05 07:48:41;;;;;;;39.58;6.88;;;;;;;10.48;100.00;102218.44;5289964;27;20023;-74
2024/02/05 07:51:12;;;;;;;49.85;7.43;;;;;;;10.51;100.00;102211.00;5296853;27;20030;-74
2024/02/05 07:53:42;;;;;;;39.92;7.00;;;;;;;10.44;100.00;102207.16;5287153;27;20012;-74
2024/02/05 07:56:13;;;;;;;36.60;5.88;;;;;;;10.52;100.00;102204.63;5283445;28;20078;-74
2024/02/05 07:58:43;;;;;;;32.67;6.13;;;;;;;10.58;100.00;102217.50;5287833;27;20026;-74
2024/02/05 08:01:14;;;;;;;42.60;7.82;;;;;;;10.48;100.00;102219.28;5291828;27;20575;-74
2024/02/05 08:03:44;;;;;;;32.35;6.93;;;;;;;10.54;100.00;102226.84;5285912;28;20020;-73
2024/02/05 08:06:19;;;;;;;42.65;7.00;;;;;;;10.55;100.00;102219.63;5287958;27;20404;-74
2024/02/05 08:08:49;;;;;;;42.03;6.88;;;;;;;10.53;100.00;102225.09;5288205;28;20120;-74
2024/02/05 08:11:20;;;;;;;34.95;6.53;;;;;;;10.50;100.00;102222.72;5290522;27;20472;-74
2024/02/05 08:13:51;;;;;;;41.00;6.60;;;;;;;10.54;100.00;102221.47;5286615;28;20083;-73
2024/02/05 08:16:21;;;;;;;39.72;6.57;;;;;;;10.60;100.00;102223.63;5287897;28;20034;-74
2024/02/05 08:18:52;;;;;;;41.70;7.10;;;;;;;10.61;100.00;102219.94;5281652;28;20028;-73
2024/02/05 08:21:22;;;;;;;37.83;5.85;;;;;;;10.57;100.00;102215.81;5282892;28;20023;-73
2024/02/05 08:23:53;;;;;;;30.33;5.68;;;;;;;10.53;100.00;102222.44;5291497;28;20020;-74
2024/02/05 08:26:23;;;;;;;44.35;7.40;;;;;;;10.52;100.00;102230.63;5281562;27;20102;-74
2024/02/05 08:28:54;;;;;;;29.67;5.53;;;;;;;10.56;100.00;102222.16;5284696;28;20020;-74
2024/02/05 08:31:24;;;;;;;27.08;6.38;;;;;;;10.57;100.00;102226.56;5288441;27;20019;-73
2024/02/05 08:33:55;;;;;;;31.13;6.30;;;;;;;10.65;100.00;102230.41;5285231;28;20072;-74
2024/02/05 08:36:25;;;;;;;41.67;6.97;;;;;;;10.64;100.00;102232.22;5282925;28;20385;-73
2024/02/05 08:38:56;;;;;;;36.72;6.35;;;;;;;10.68;100.00;102230.13;5286330;28;20031;-73
2024/02/05 08:41:26;;;;;;;33.83;7.32;;;;;;;10.72;100.00;102215.47;5287110;28;20480;-74
2024/02/05 08:43:57;;;;;;;40.53;7.10;;;;;;;10.69;100.00;102221.09;5286979;28;20023;-73
2024/02/05 08:46:27;;;;;;;28.17;6.15;;;;;;;10.70;100.00;102209.41;5286702;27;20067;-74
2024/02/05 08:48:58;;;;;;;40.33;7.32;;;;;;;10.80;100.00;102218.34;5281859;28;20040;-74
2024/02/05 08:51:30;;;;;;;29.45;6.32;;;;;;;10.74;100.00;102217.03;5282329;28;20541;-74
2024/02/05 08:54:01;;;;;;;39.63;6.30;;;;;;;10.82;100.00;102211.84;5270819;28;20028;-73
2024/02/05 08:56:31;;;;;;;28.15;5.53;;;;;;;10.92;100.00;102216.41;5277374;28;20038;-74
2024/02/05 08:59:02;;;;;;;38.65;6.72;;;;;;;10.91;100.00;102226.31;5279943;28;20015;-74
2024/02/05 09:01:33;;;;;;;31.15;6.13;;;;;;;10.87;100.00;102211.44;5285351;27;20020;-74
2024/02/05 09:04:04;;;;;;;38.80;6.22;;;;;;;10.89;100.00;102215.72;5274740;28;20469;-74
2024/02/05 09:06:34;;;;;;;41.97;7.05;;;;;;;10.99;100.00;102213.03;5277843;28;20023;-74
2024/02/05 09:09:05;;;;;;;30.35;5.65;;;;;;;11.02;100.00;102217.28;5280226;28;20050;-74
2024/02/05 09:11:35;;;;;;;25.63;6.05;;;;;;;10.97;100.00;102212.31;5275540;28;20030;-74
2024/02/05 09:14:06;;;;;;;28.10;5.20;;;;;;;10.98;100.00;102222.06;5284948;27;20545;-74
2024/02/05 09:16:36;;;;;;;29.45;5.63;;;;;;;10.99;100.00;102204.13;5278604;27;20474;-74
2024/02/05 09:19:07;;;;;;;32.28;6.45;;;;;;;11.00;100.00;102206.69;5283890;28;20080;-74
2024/02/05 09:21:37;;;;;;;32.72;5.88;;;;;;;10.99;100.00;102196.91;5274049;28;20024;-74
2024/02/05 09:24:07;;;;;;;34.95;6.78;;;;;;;11.11;100.00;102201.22;5279302;28;20155;-76
2024/02/05 09:26:38;;;;;;;47.20;7.65;;;;;;;11.21;100.00;102198.56;5288800;27;20047;-76
2024/02/05 09:29:08;;;;;;;37.78;9.10;;;;;;;11.26;100.00;102190.94;5280228;27;20028;-77
2024/02/05 09:31:40;;;;;;;30.10;8.88;;;;;;;11.33;100.00;102193.91;5286489;27;20081;-76
2024/02/05 09:34:13;;;;;;;51.00;13.10;;;;;;;11.39;100.00;102196.88;5292913;27;20668;-76
2024/02/05 09:36:44;;;;;;;38.63;9.73;;;;;;;11.29;100.00;102187.94;5292784;27;20043;-76
2024/02/05 09:39:15;;;;;;;35.55;7.38;;;;;;;11.26;100.00;102184.72;5287862;27;20714;-77
2024/02/05 09:41:46;;;;;;;52.30;9.50;;;;;;;11.36;100.00;102199.88;5291500;27;20104;-77
2024/02/05 09:44:17;;;;;;;30.85;6.20;;;;;;;11.32;100.00;102198.44;5292968;27;20030;-76
2024/02/05 09:46:50;;;;;;;38.38;8.23;;;;;;;11.35;100.00;102208.91;5289420;27;20051;-77
2024/02/05 09:49:21;;;;;;;24.42;7.50;;;;;;;11.25;100.00;102196.47;5291312;27;20019;-77
2024/02/05 09:51:53;;;;;;;43.28;10.32;;;;;;;11.41;100.00;102208.34;5287146;27;20047;-77
2024/02/05 09:54:23;;;;;;;34.33;9.93;;;;;;;11.53;100.00;102195.63;5293854;27;20015;-76
2024/02/05 09:56:54;;;;;;;44.65;9.00;;;;;;;11.44;100.00;102183.03;5285868;27;20054;-76
2024/02/05 09:59:25;;;;;;;39.63;8.05;;;;;;;11.55;100.00;102198.22;5293309;27;20769;-76
2024/02/05 10:01:57;;;;;;;32.10;9.50;;;;;;;11.54;100.00;102194.63;5291053;27;20023;-77
2024/02/05 10:04:29;;;;;;;35.97;6.47;;;;;;;11.53;100.00;102186.72;5292711;27;20022;-76
2024/02/05 10:07:00;;;;;;;31.45;8.73;;;;;;;11.43;100.00;102196.63;5288207;27;20054;-76
2024/02/05 10:09:30;;;;;;;36.63;5.97;;;;;;;11.64;100.00;102186.59;5289098;27;20023;-76
2024/02/05 10:12:02;;;;;;;29.40;6.25;;;;;;;11.55;100.00;102187.47;5290060;27;20042;-76
2024/02/05 10:14:33;;;;;;;38.42;8.63;;;;;;;11.54;100.00;102172.28;5286715;27;20110;-76
2024/02/05 10:17:04;;;;;;;31.27;6.03;;;;;;;11.67;100.00;102184.47;5274969;27;20414;-76
2024/02/05 10:19:35;;;;;;;34.78;9.35;;;;;;;11.71;100.00;102186.91;5286635;27;20030;-76
2024/02/05 10:22:07;;;;;;;33.00;7.63;;;;;;;11.70;100.00;102185.16;5290230;27;20054;-76
2024/02/05 10:24:40;;;;;;;25.45;7.50;;;;;;;11.72;100.00;102189.44;5291854;27;20031;-76
2024/02/05 10:27:16;;;;;;;28.20;5.80;;;;;;;11.79;100.00;102192.41;5284956;27;20438;-76
2024/02/05 10:29:47;;;;;;;32.55;8.75;;;;;;;11.92;100.00;102195.69;5285436;27;20613;-76
2024/02/05 10:32:22;;;;;;;29.10;6.10;;;;;;;11.95;100.00;102198.09;5283824;28;20093;-76
2024/02/05 10:34:52;;;;;;;37.03;9.98;;;;;;;11.95;100.00;102205.31;5283223;27;20039;-76
2024/02/05 10:37:23;;;;;;;34.55;5.97;;;;;;;11.76;100.00;102195.38;5291768;27;20058;-76
2024/02/05 10:40:05;;;;;;;39.60;7.07;;;;;;;11.72;100.00;102188.59;5284987;27;20015;-76
2024/02/05 10:42:36;;;;;;;26.33;5.20;;;;;;;11.86;100.00;102188.19;5283171;27;20085;-76
2024/02/05 10:45:07;;;;;;;30.48;7.32;;;;;;;11.89;100.00;102185.22;5285601;27;20028;-77
2024/02/05 10:47:38;;;;;;;34.40;6.70;;;;;;;11.83;100.00;102180.41;5282984;27;20024;-77
2024/02/05 10:50:13;;;;;;;23.92;5.07;;;;;;;11.75;100.00;102194.53;5284020;27;20079;-76
2024/02/05 10:52:44;;;;;;;26.60;6.15;;;;;;;11.90;100.00;102189.63;5282481;27;20110;-76
2024/02/05 10:55:15;;;;;;;27.67;6.13;;;;;;;11.76;100.00;102181.94;5278520;27;20034;-76
2024/02/05 10:57:48;;;;;;;28.38;5.50;;;;;;;11.83;100.00;102183.09;5288521;27;20515;-76
2024/02/05 11:00:20;;;;;;;27.33;6.10;;;;;;;11.82;100.00;102184.94;5277803;27;20050;-76
2024/02/05 11:02:55;;;;;;;33.72;6.63;;;;;;;11.87;100.00;102174.59;5279271;27;20485;-74
2024/02/05 11:05:26;;;;;;;28.98;4.95;;;;;;;11.95;100.00;102175.72;5288749;27;20134;-72
2024/02/05 11:08:05;;;;;;;28.65;6.53;;;;;;;12.02;100.00;102179.56;5282185;27;20362;-72
2024/02/05 11:10:45;;;;;;;31.67;6.13;;;;;;;11.89;100.00;102166.38;5283212;27;20190;-72
2024/02/05 11:13:21;;;;;;;30.58;6.22;;;;;;;11.81;100.00;102171.63;5286740;27;20026;-72
2024/02/05 11:15:55;;;;;;;26.77;6.25;;;;;;;11.73;100.00;102169.63;5286412;27;20059;-72
2024/02/05 11:18:38;;;;;;;33.65;5.88;;;;;;;11.82;100.00;102154.50;5283397;27;20028;-72
2024/02/05 11:21:11;;;;;;;30.95;5.68;;;;;;;11.84;100.00;102168.66;5284049;27;20099;-72
2024/02/05 11:23:44;;;;;;;34.85;6.95;;;;;;;11.82;100.00;102152.66;5283333;27;20019;-72
2024/02/05 11:26:16;;;;;;;39.17;7.50;;;;;;;11.82;100.00;102147.28;5284605;27;20058;-72
2024/02/05 11:28:53;;;;;;;39.45;9.63;;;;;;;11.94;100.00;102145.28;5287590;27;20027;-72